Time;durP1;ratioP1;P1;durP2;ratioP2;P2;SDS_P1;SDS_P2;PMS_P1;PMS_P2;Temp;Humidity;BMP_temperature;BMP_pressure;BME280_temperature;BME280_humidity;BME280_pressure;Samples;Min_cycle;Max_cycle;Signal;HPM_P1;HPM_P2
2022/11/23 00:01:31;;;;;;;7.80;3.05;;;;;;;8.09;98.37;99481.38;5051734;28;20052;-70
2022/11/23 00:04:12;;;;;;;6.72;2.58;;;;;;;8.11;98.42;99486.56;5041892;28;20064;-70
2022/11/23 00:06:40;;;;;;;8.38;2.90;;;;;;;8.12;98.31;99493.53;5039867;28;20046;-70
2022/11/23 00:09:10;;;;;;;9.38;2.88;;;;;;;8.15;98.46;99498.66;5060023;28;20120;-70
2022/11/23 00:11:37;;;;;;;6.60;2.75;;;;;;;8.16;98.29;99497.75;5062385;28;20044;-70
2022/11/23 00:14:04;;;;;;;7.68;2.92;;;;;;;8.15;98.41;99502.13;5058288;28;20474;-70
2022/11/23 00:16:31;;;;;;;8.23;3.30;;;;;;;8.16;98.36;99498.56;5051217;28;20041;-70
2022/11/23 00:19:00;;;;;;;8.93;3.15;;;;;;;8.18;98.29;99496.75;5053380;28;20100;-70
2022/11/23 00:21:31;;;;;;;9.98;3.00;;;;;;;8.19;98.14;99495.00;5051081;28;20037;-70
2022/11/23 00:23:58;;;;;;;11.38;3.22;;;;;;;8.18;98.06;99499.38;5048463;28;20463;-70
2022/11/23 00:26:26;;;;;;;9.52;4.10;;;;;;;8.19;98.27;99501.09;5034181;28;20083;-70
2022/11/23 00:28:53;;;;;;;9.05;3.13;;;;;;;8.22;98.27;99498.34;5048900;28;20129;-70
2022/11/23 00:31:20;;;;;;;10.20;3.50;;;;;;;8.22;98.14;99506.22;5049123;28;20073;-71
2022/11/23 00:33:51;;;;;;;8.70;3.00;;;;;;;8.23;97.97;99504.44;5052037;28;20045;-71
2022/11/23 00:36:22;;;;;;;9.30;3.00;;;;;;;8.23;98.00;99507.06;5055475;28;20041;-71
2022/11/23 00:38:53;;;;;;;9.95;3.25;;;;;;;8.22;98.11;99511.47;5051548;28;20045;-71
2022/11/23 00:41:25;;;;;;;10.45;3.10;;;;;;;8.24;98.12;99508.75;5048672;28;20048;-71
2022/11/23 00:43:53;;;;;;;8.27;3.40;;;;;;;8.25;97.95;99505.22;5020131;28;20041;-71
2022/11/23 00:46:26;;;;;;;12.82;3.20;;;;;;;8.26;97.91;99503.44;5056970;28;20049;-72
2022/11/23 00:48:56;;;;;;;14.48;3.53;;;;;;;8.25;98.02;99507.84;5053534;28;20060;-72
2022/11/23 00:51:34;;;;;;;9.73;2.85;;;;;;;8.28;97.93;99506.88;5048246;28;20064;-72
2022/11/23 00:54:04;;;;;;;10.50;3.00;;;;;;;8.27;97.61;99508.66;5053349;28;20049;-72
2022/11/23 00:56:34;;;;;;;12.02;2.78;;;;;;;8.30;97.63;99507.66;5051520;28;20064;-72
2022/11/23 00:59:02;;;;;;;9.35;2.88;;;;;;;8.32;97.56;99518.97;5043495;28;20045;-72
2022/11/23 01:01:35;;;;;;;6.95;2.58;;;;;;;8.31;97.33;99515.47;5045465;28;20045;-73
2022/11/23 01:04:06;;;;;;;11.50;2.58;;;;;;;8.33;97.19;99525.91;5043402;28;20804;-72
2022/11/23 01:06:37;;;;;;;9.93;2.63;;;;;;;8.34;97.19;99525.84;5048868;28;20521;-72
2022/11/23 01:09:09;;;;;;;5.97;2.10;;;;;;;8.34;97.38;99528.47;5048498;28;20041;-72
2022/11/23 01:11:37;;;;;;;9.82;2.70;;;;;;;8.34;97.21;99533.72;5056004;28;20047;-72
2022/11/23 01:14:04;;;;;;;9.38;2.60;;;;;;;8.35;97.20;99531.94;5049715;28;20057;-72
2022/11/23 01:16:37;;;;;;;10.60;2.30;;;;;;;8.36;97.04;99528.38;5069735;28;20039;-73
2022/11/23 01:19:12;;;;;;;12.27;2.50;;;;;;;8.35;96.79;99532.81;5047002;28;20072;-72
2022/11/23 01:21:41;;;;;;;13.65;2.50;;;;;;;8.35;96.69;99534.56;5056427;28;20095;-72
2022/11/23 01:24:24;;;;;;;8.52;2.08;;;;;;;8.35;96.31;99538.06;5054229;28;20042;-72
2022/11/23 01:26:54;;;;;;;9.60;1.77;;;;;;;8.32;96.39;99538.19;5065604;28;20117;-73
2022/11/23 01:29:23;;;;;;;10.93;2.00;;;;;;;8.34;96.45;99538.97;5046705;28;20073;-73
2022/11/23 01:31:50;;;;;;;8.93;2.17;;;;;;;8.34;96.11;99544.22;5049781;28;20037;-72
2022/11/23 01:34:20;;;;;;;6.65;2.15;;;;;;;8.32;96.06;99543.44;5022544;28;20097;-72
2022/11/23 01:36:49;;;;;;;9.60;2.20;;;;;;;8.31;95.87;99544.34;5053510;28;20080;-71
2022/11/23 01:39:16;;;;;;;15.25;2.70;;;;;;;8.31;95.80;99543.50;5047900;28;20037;-71
2022/11/23 01:41:44;;;;;;;11.57;2.50;;;;;;;8.32;95.77;99542.59;5057772;28;20576;-71
2022/11/23 01:44:33;;;;;;;12.60;2.83;;;;;;;8.34;95.81;99546.84;5054069;28;20045;-72
2022/11/23 01:47:07;;;;;;;9.57;2.30;;;;;;;8.34;95.52;99540.75;5049246;28;20042;-71
2022/11/23 01:49:47;;;;;;;10.35;1.85;;;;;;;8.33;95.58;99542.50;5051030;28;20052;-71
2022/11/23 01:52:21;;;;;;;13.57;2.10;;;;;;;8.34;95.54;99551.25;5063873;28;20041;-71
2022/11/23 01:54:54;;;;;;;9.93;1.98;;;;;;;8.35;95.23;99555.56;5053558;28;20045;-71
2022/11/23 01:57:28;;;;;;;9.73;1.90;;;;;;;8.35;95.27;99556.44;5055121;28;20045;-71
2022/11/23 01:59:56;;;;;;;7.85;1.90;;;;;;;8.34;95.11;99554.72;5051514;28;20594;-72
2022/11/23 02:02:29;;;;;;;8.77;1.90;;;;;;;8.36;94.90;99563.41;5050173;28;20041;-72
2022/11/23 02:05:00;;;;;;;10.05;1.90;;;;;;;8.37;95.14;99566.88;5052689;28;20045;-73
2022/11/23 02:07:29;;;;;;;8.57;2.50;;;;;;;8.37;94.87;99573.00;5050774;28;20037;-72
2022/11/23 02:09:57;;;;;;;8.68;1.80;;;;;;;8.39;94.72;99583.41;5053421;28;20046;-72
2022/11/23 02:12:24;;;;;;;8.13;2.30;;;;;;;8.40;94.72;99567.59;5035274;28;20072;-72
2022/11/23 02:14:51;;;;;;;9.48;1.95;;;;;;;8.40;94.75;99572.00;5060799;28;20044;-72
2022/11/23 02:17:18;;;;;;;7.18;1.80;;;;;;;8.42;94.66;99567.56;5052120;28;20041;-72
2022/11/23 02:20:09;;;;;;;7.63;1.73;;;;;;;8.41;94.46;99565.84;5036472;28;22237;-72
2022/11/23 02:23:20;;;;;;;8.35;1.80;;;;;;;8.39;94.08;99565.88;5049375;28;20049;-72
2022/11/23 02:25:59;;;;;;;12.07;2.03;;;;;;;8.31;93.78;99575.00;4950238;28;20048;-72
2022/11/23 02:28:36;;;;;;;6.82;2.08;;;;;;;8.25;94.04;99576.13;5029117;28;20045;-72
2022/11/23 02:31:05;;;;;;;8.43;1.67;;;;;;;8.22;94.04;99573.59;5033623;28;20048;-73
2022/11/23 02:33:52;;;;;;;9.88;2.10;;;;;;;8.25;94.25;99578.75;5049153;28;20048;-74
2022/11/23 02:36:35;;;;;;;6.20;1.70;;;;;;;8.27;94.47;99579.53;5060091;28;20038;-73
2022/11/23 02:39:29;;;;;;;12.13;2.30;;;;;;;8.32;94.58;99572.31;5049730;28;20034;-73
2022/11/23 02:41:59;;;;;;;7.88;1.75;;;;;;;8.34;93.94;99573.09;5049335;28;20045;-74
2022/11/23 02:44:35;;;;;;;11.20;1.65;;;;;;;8.36;93.89;99581.78;5052194;28;20798;-74
2022/11/23 02:47:04;;;;;;;8.90;2.00;;;;;;;8.38;93.85;99576.47;5052281;28;20132;-73
2022/11/23 02:49:31;;;;;;;9.13;1.83;;;;;;;8.39;93.82;99578.16;5054397;28;20534;-74
2022/11/23 02:51:59;;;;;;;7.93;1.63;;;;;;;8.39;93.95;99586.06;5048705;28;20049;-74
2022/11/23 02:54:26;;;;;;;14.63;2.10;;;;;;;8.41;93.77;99592.09;5055759;28;20041;-74
2022/11/23 02:56:53;;;;;;;7.82;2.15;;;;;;;8.44;93.78;99577.97;5056552;28;20040;-72
2022/11/23 02:59:21;;;;;;;12.50;2.00;;;;;;;8.45;93.63;99575.28;5055914;28;20045;-72
2022/11/23 03:01:50;;;;;;;9.35;1.77;;;;;;;8.46;93.42;99573.53;5057739;28;20038;-72
2022/11/23 03:04:17;;;;;;;9.70;2.05;;;;;;;8.47;93.55;99583.13;5045651;28;20045;-71
2022/11/23 03:06:53;;;;;;;5.95;1.80;;;;;;;8.48;93.69;99574.34;5051966;28;20108;-72
2022/11/23 03:09:20;;;;;;;10.25;2.25;;;;;;;8.50;93.58;99583.00;5051515;28;20060;-72
2022/11/23 03:11:47;;;;;;;9.50;2.17;;;;;;;8.51;93.70;99584.72;5052262;28;20047;-72
2022/11/23 03:14:15;;;;;;;6.80;2.03;;;;;;;8.52;93.68;99581.16;5057607;28;20048;-72
2022/11/23 03:16:48;;;;;;;6.75;1.52;;;;;;;8.53;93.67;99581.13;5031412;28;20045;-72
2022/11/23 03:19:17;;;;;;;8.65;1.73;;;;;;;8.52;93.68;99587.28;5061294;28;20045;-72
2022/11/23 03:21:45;;;;;;;10.35;2.10;;;;;;;8.54;93.61;99579.34;5032603;28;20427;-72
2022/11/23 03:24:12;;;;;;;8.00;2.00;;;;;;;8.54;93.22;99585.47;5062092;28;20045;-72
2022/11/23 03:26:39;;;;;;;8.63;1.98;;;;;;;8.53;93.16;99585.50;5050236;28;20049;-71
2022/11/23 03:29:09;;;;;;;14.60;2.53;;;;;;;8.52;93.17;99586.41;5056505;28;20045;-72
2022/11/23 03:31:38;;;;;;;10.93;2.05;;;;;;;8.53;92.75;99589.00;5038273;28;20088;-73
2022/11/23 03:34:10;;;;;;;8.65;1.95;;;;;;;8.51;92.83;99592.59;5041506;28;20041;-72
2022/11/23 03:36:39;;;;;;;8.48;1.70;;;;;;;8.50;92.83;99601.38;5058214;28;20046;-72
2022/11/23 03:39:07;;;;;;;12.30;2.10;;;;;;;8.49;92.99;99602.34;5049651;28;20506;-73
2022/11/23 03:41:49;;;;;;;10.43;1.73;;;;;;;8.50;92.99;99607.50;5051794;28;20037;-73
2022/11/23 03:44:20;;;;;;;8.75;1.70;;;;;;;8.50;93.33;99602.25;5057505;28;20042;-73
2022/11/23 03:46:49;;;;;;;8.82;2.00;;;;;;;8.49;93.11;99603.16;5053316;28;20483;-73
2022/11/23 03:49:16;;;;;;;8.93;1.90;;;;;;;8.49;93.12;99602.34;5055406;28;20050;-73
2022/11/23 03:51:44;;;;;;;7.40;2.05;;;;;;;8.49;93.09;99607.59;5050992;28;20084;-73
2022/11/23 03:54:11;;;;;;;13.50;2.20;;;;;;;8.49;93.13;99607.59;5046620;28;20045;-72
2022/11/23 03:56:38;;;;;;;10.45;2.22;;;;;;;8.49;93.29;99605.78;5036279;28;20131;-73
2022/11/23 03:59:14;;;;;;;8.10;1.77;;;;;;;8.49;93.12;99607.59;5029974;28;20042;-73
2022/11/23 04:01:41;;;;;;;9.57;1.65;;;;;;;8.47;93.07;99602.38;5048509;28;20091;-73
2022/11/23 04:04:17;;;;;;;12.38;2.33;;;;;;;8.45;93.03;99605.94;5033880;28;20081;-72
2022/11/23 04:06:56;;;;;;;11.60;2.28;;;;;;;8.43;92.92;99608.66;5053057;28;20033;-73
2022/11/23 04:09:28;;;;;;;9.93;2.00;;;;;;;8.41;92.87;99613.09;5046022;28;20068;-72
2022/11/23 04:12:17;;;;;;;9.38;2.00;;;;;;;8.40;92.79;99608.78;5051162;28;20489;-72
2022/11/23 04:14:44;;;;;;;10.98;2.20;;;;;;;8.40;92.67;99608.78;5036097;28;20605;-72
2022/11/23 04:17:12;;;;;;;11.10;2.25;;;;;;;8.39;92.98;99610.53;5046667;28;20054;-70
2022/11/23 04:19:40;;;;;;;11.60;2.03;;;;;;;8.39;93.12;99610.53;5029980;28;20144;-71
2022/11/23 04:22:08;;;;;;;11.82;2.13;;;;;;;8.40;93.01;99608.78;5032146;28;20129;-71
2022/11/23 04:24:39;;;;;;;10.40;2.25;;;;;;;8.40;93.08;99611.41;5023565;28;20538;-71
2022/11/23 04:27:07;;;;;;;9.68;2.20;;;;;;;8.40;93.12;99614.88;5047632;28;20135;-71
2022/11/23 04:29:37;;;;;;;11.10;2.55;;;;;;;8.42;93.14;99608.69;5031183;28;20196;-71
2022/11/23 04:32:04;;;;;;;14.25;2.42;;;;;;;8.43;93.12;99607.78;5049461;28;20037;-72
2022/11/23 04:34:31;;;;;;;9.55;2.10;;;;;;;8.42;93.03;99601.69;5035124;28;20137;-72
2022/11/23 04:37:01;;;;;;;8.88;2.00;;;;;;;8.42;93.08;99606.94;5041825;28;20048;-71
2022/11/23 04:39:35;;;;;;;10.50;2.20;;;;;;;8.39;92.83;99607.91;5030062;28;20045;-71
2022/11/23 04:42:18;;;;;;;11.80;2.30;;;;;;;8.38;92.69;99606.22;5056468;28;20041;-72
2022/11/23 04:44:50;;;;;;;11.25;2.33;;;;;;;8.39;92.52;99607.06;5054461;28;20037;-71
2022/11/23 04:47:18;;;;;;;12.20;2.88;;;;;;;8.38;92.64;99610.59;5049658;28;20041;-71
2022/11/23 04:49:47;;;;;;;10.40;2.38;;;;;;;8.36;92.79;99610.66;5024639;28;20042;-71
2022/11/23 04:52:15;;;;;;;8.75;2.15;;;;;;;8.37;92.79;99609.75;5053731;28;20056;-71
2022/11/23 04:54:48;;;;;;;18.30;2.47;;;;;;;8.36;92.86;99618.56;5034143;28;20045;-71
2022/11/23 04:57:15;;;;;;;17.88;2.80;;;;;;;8.35;92.71;99611.59;5047902;28;20045;-72
2022/11/23 04:59:44;;;;;;;7.88;1.98;;;;;;;8.36;92.57;99612.44;5047763;28;20529;-72
2022/11/23 05:02:11;;;;;;;17.48;2.63;;;;;;;8.36;92.70;99613.31;5050055;28;20049;-72
2022/11/23 05:04:50;;;;;;;13.88;2.35;;;;;;;8.35;92.57;99613.34;5044326;28;20044;-72
2022/11/23 05:07:19;;;;;;;11.40;3.47;;;;;;;8.35;92.63;99614.22;5052666;28;20043;-72
2022/11/23 05:09:53;;;;;;;10.15;2.45;;;;;;;8.35;92.64;99608.97;5050920;28;20041;-72
2022/11/23 05:12:21;;;;;;;10.65;2.40;;;;;;;8.35;92.41;99608.97;5047281;28;20049;-72
2022/11/23 05:14:49;;;;;;;9.95;2.38;;;;;;;8.34;92.29;99606.41;5044965;28;20042;-72
2022/11/23 05:17:22;;;;;;;10.32;2.17;;;;;;;8.34;92.11;99607.25;5028842;28;20617;-72
2022/11/23 05:19:54;;;;;;;17.85;2.60;;;;;;;8.34;92.04;99604.63;5043256;28;20196;-73
2022/11/23 05:22:23;;;;;;;12.85;2.13;;;;;;;8.33;91.72;99597.66;5045865;28;20049;-71
2022/11/23 05:24:51;;;;;;;16.52;2.90;;;;;;;8.33;91.67;99604.69;5047475;28;20553;-70
2022/11/23 05:27:22;;;;;;;13.18;2.45;;;;;;;8.39;91.85;99605.28;5045687;28;20053;-70
2022/11/23 05:29:50;;;;;;;13.25;2.00;;;;;;;8.45;91.80;99603.31;5020156;28;20071;-70
2022/11/23 05:32:18;;;;;;;10.45;2.20;;;;;;;8.49;91.57;99605.78;5023635;28;20057;-69
2022/11/23 05:34:45;;;;;;;12.30;3.25;;;;;;;8.52;91.45;99608.31;5032926;28;20042;-70
2022/11/23 05:37:14;;;;;;;12.13;2.08;;;;;;;8.58;91.29;99615.06;5029973;28;20049;-70
2022/11/23 05:39:50;;;;;;;9.13;1.85;;;;;;;8.66;91.14;99607.72;5043040;28;20482;-70
2022/11/23 05:42:18;;;;;;;14.38;2.10;;;;;;;8.76;91.00;99612.59;5033833;28;20049;-69
2022/11/23 05:44:49;;;;;;;13.70;2.53;;;;;;;8.82;90.15;99607.06;5047225;28;20045;-70
2022/11/23 05:47:21;;;;;;;9.95;1.95;;;;;;;8.84;89.83;99611.34;5065520;28;20088;-70
2022/11/23 05:49:49;;;;;;;11.55;2.42;;;;;;;8.86;89.41;99611.28;5031070;28;20042;-70
2022/11/23 05:52:20;;;;;;;11.10;2.58;;;;;;;8.85;88.65;99613.03;5044522;28;20042;-71
2022/11/23 05:54:47;;;;;;;15.88;2.15;;;;;;;8.83;88.46;99611.41;5033256;28;20042;-70
2022/11/23 05:57:14;;;;;;;12.00;1.85;;;;;;;8.82;88.06;99617.56;5052126;28;20046;-71
2022/11/23 05:59:43;;;;;;;15.88;2.60;;;;;;;8.80;87.89;99622.06;5044486;28;20518;-70
2022/11/23 06:02:16;;;;;;;13.38;2.13;;;;;;;8.80;87.66;99619.44;5029499;28;20566;-71
2022/11/23 06:04:43;;;;;;;8.48;2.15;;;;;;;8.76;87.22;99618.69;5025829;28;20558;-70
2022/11/23 06:07:15;;;;;;;12.00;2.35;;;;;;;8.70;87.41;99614.53;5025944;28;20092;-71
2022/11/23 06:09:57;;;;;;;9.52;2.20;;;;;;;8.66;87.41;99620.84;5024179;28;20095;-70
2022/11/23 06:12:27;;;;;;;13.25;1.98;;;;;;;8.64;87.55;99608.72;5038125;28;20100;-71
2022/11/23 06:14:55;;;;;;;11.88;2.30;;;;;;;8.61;87.58;99620.19;5024442;28;20034;-71
2022/11/23 06:17:24;;;;;;;12.27;2.55;;;;;;;8.54;87.57;99619.59;5024831;28;20196;-71
2022/11/23 06:19:55;;;;;;;10.63;2.40;;;;;;;8.48;87.77;99619.00;5040320;28;20523;-71
2022/11/23 06:22:22;;;;;;;10.85;1.92;;;;;;;8.40;87.88;99624.53;5027954;28;20038;-71
2022/11/23 06:24:59;;;;;;;14.73;3.45;;;;;;;8.33;88.08;99618.66;5018704;28;20212;-71
2022/11/23 06:27:41;;;;;;;13.57;3.00;;;;;;;8.26;88.21;99619.84;5020563;28;20041;-71
2022/11/23 06:30:15;;;;;;;14.10;2.35;;;;;;;8.24;88.36;99621.66;5046316;28;20046;-71
2022/11/23 06:32:43;;;;;;;9.85;1.85;;;;;;;8.21;88.48;99624.41;5031553;28;20052;-71
2022/11/23 06:35:10;;;;;;;10.90;1.90;;;;;;;8.17;88.33;99623.69;5042030;28;20049;-71
2022/11/23 06:37:40;;;;;;;12.35;2.40;;;;;;;8.15;88.51;99620.25;5027576;28;20089;-71
2022/11/23 06:40:11;;;;;;;16.42;3.25;;;;;;;8.15;88.51;99629.91;5032410;28;20045;-71
2022/11/23 06:42:39;;;;;;;10.93;2.80;;;;;;;8.14;88.74;99633.44;5032405;28;20046;-72
2022/11/23 06:45:17;;;;;;;14.10;2.60;;;;;;;8.12;88.95;99640.53;5049625;28;20042;-71
2022/11/23 06:47:48;;;;;;;12.88;1.92;;;;;;;8.12;89.04;99643.16;5048983;28;20135;-71
2022/11/23 06:50:17;;;;;;;14.15;2.90;;;;;;;8.12;88.87;99640.53;5033200;28;20067;-71
2022/11/23 06:52:46;;;;;;;12.38;3.53;;;;;;;8.08;89.04;99642.41;5034437;28;20144;-72
2022/11/23 06:55:15;;;;;;;18.77;3.30;;;;;;;8.07;89.08;99646.81;5034667;28;20136;-72
2022/11/23 06:57:42;;;;;;;14.80;2.58;;;;;;;8.06;89.36;99645.13;5034960;28;20037;-72
2022/11/23 07:00:12;;;;;;;13.13;2.70;;;;;;;8.04;89.27;99641.69;5050698;28;20045;-72
2022/11/23 07:02:40;;;;;;;11.40;1.95;;;;;;;8.02;89.25;99640.88;5048457;28;20049;-72
2022/11/23 07:05:08;;;;;;;15.25;2.60;;;;;;;8.02;89.25;99659.25;5034720;28;20107;-72
2022/11/23 07:07:37;;;;;;;12.93;2.05;;;;;;;8.02;89.54;99653.16;5050986;28;20084;-72
2022/11/23 07:10:12;;;;;;;14.27;2.22;;;;;;;8.01;89.73;99665.41;5050368;28;20822;-73
2022/11/23 07:12:52;;;;;;;11.65;2.25;;;;;;;8.01;89.90;99662.78;5034317;28;20065;-72
2022/11/23 07:15:21;;;;;;;18.13;2.50;;;;;;;8.01;90.14;99670.66;5051303;28;20038;-72
2022/11/23 07:17:50;;;;;;;18.35;2.75;;;;;;;8.00;90.00;99663.69;5033000;28;20045;-72
2022/11/23 07:20:20;;;;;;;18.23;3.88;;;;;;;8.00;90.21;99671.56;5034141;28;20426;-72
2022/11/23 07:22:47;;;;;;;11.43;3.42;;;;;;;8.01;90.17;99667.19;5034346;28;20829;-72
2022/11/23 07:25:17;;;;;;;10.40;2.30;;;;;;;8.01;90.17;99668.03;5034112;28;20466;-72
2022/11/23 07:27:44;;;;;;;18.80;2.67;;;;;;;8.02;90.15;99675.00;5051562;28;20638;-72
2022/11/23 07:30:13;;;;;;;16.20;2.75;;;;;;;8.02;90.11;99677.63;5050796;28;20048;-72
2022/11/23 07:32:40;;;;;;;11.73;2.15;;;;;;;8.03;90.08;99683.75;5032548;28;20061;-72
2022/11/23 07:35:08;;;;;;;15.40;2.67;;;;;;;8.01;90.25;99683.78;5050079;28;20486;-73
2022/11/23 07:37:38;;;;;;;15.48;2.28;;;;;;;8.01;90.08;99691.66;5033591;28;20537;-72
2022/11/23 07:40:06;;;;;;;18.50;2.80;;;;;;;8.02;90.24;99682.03;5051863;28;20053;-72
2022/11/23 07:42:34;;;;;;;10.88;2.55;;;;;;;8.02;90.32;99689.91;5049528;28;20051;-72
2022/11/23 07:45:10;;;;;;;12.23;2.58;;;;;;;8.04;90.38;99695.94;5051603;28;20046;-71
2022/11/23 07:47:41;;;;;;;11.95;3.05;;;;;;;8.03;90.35;99699.50;5033592;28;20069;-72
2022/11/23 07:50:10;;;;;;;11.15;2.70;;;;;;;8.03;90.20;99692.47;5036511;28;20057;-72
2022/11/23 07:52:40;;;;;;;14.57;3.25;;;;;;;8.06;90.21;99699.38;5046934;28;20735;-72
2022/11/23 07:55:07;;;;;;;12.52;2.67;;;;;;;8.09;90.02;99701.88;5041007;28;20050;-71
2022/11/23 07:57:34;;;;;;;12.50;3.08;;;;;;;8.10;89.98;99700.97;5031800;28;20050;-72
2022/11/23 08:00:03;;;;;;;15.50;2.50;;;;;;;8.11;89.70;99713.19;5048944;28;20041;-72
2022/11/23 08:02:38;;;;;;;15.20;2.90;;;;;;;8.11;89.44;99709.69;5050878;28;20053;-72
2022/11/23 08:05:26;;;;;;;13.00;3.30;;;;;;;8.12;88.76;99712.28;5051068;28;20096;-72
2022/11/23 08:07:59;;;;;;;19.10;3.17;;;;;;;8.11;88.42;99714.94;5051401;28;20584;-72
2022/11/23 08:10:31;;;;;;;13.47;2.50;;;;;;;8.08;88.26;99710.66;5049747;28;20053;-72
2022/11/23 08:13:02;;;;;;;15.32;2.55;;;;;;;8.04;88.21;99709.94;5050384;28;20048;-72
2022/11/23 08:15:30;;;;;;;8.48;1.98;;;;;;;8.03;88.11;99717.88;5050897;28;20037;-72
2022/11/23 08:18:04;;;;;;;18.17;2.28;;;;;;;8.02;87.90;99717.00;5049996;28;20092;-72
2022/11/23 08:20:32;;;;;;;;;;;;;;;7.97;88.01;99712.84;5051032;28;20048;-72
2022/11/23 08:22:59;;;;;;;14.18;2.20;;;;;;;7.96;88.03;99716.38;5050694;28;19925;-72
2022/11/23 08:25:28;;;;;;;21.15;3.67;;;;;;;7.98;87.67;99715.44;5049701;28;20060;-71
2022/11/23 08:28:02;;;;;;;14.18;2.15;;;;;;;7.95;87.66;99715.53;5050872;28;20064;-71
2022/11/23 08:30:32;;;;;;;11.05;1.65;;;;;;;7.94;87.75;99726.94;5050935;28;20037;-71
2022/11/23 08:33:03;;;;;;;13.90;2.22;;;;;;;7.94;87.36;99732.19;5051215;28;20490;-71
2022/11/23 08:35:36;;;;;;;9.32;2.00;;;;;;;7.89;87.46;99726.25;5050870;28;20084;-71
2022/11/23 08:38:05;;;;;;;14.20;1.95;;;;;;;7.88;87.15;99725.41;5051092;28;20681;-71
2022/11/23 08:40:32;;;;;;;15.50;1.83;;;;;;;7.91;87.14;99732.28;5050641;28;20042;-71
2022/11/23 08:43:00;;;;;;;16.35;2.45;;;;;;;7.96;87.16;99732.13;5047245;28;20046;-71
2022/11/23 08:45:27;;;;;;;14.48;2.20;;;;;;;8.03;87.19;99739.72;5051211;28;20042;-71
2022/11/23 08:47:59;;;;;;;11.07;1.60;;;;;;;8.13;86.73;99735.00;5050840;28;20068;-71
2022/11/23 08:50:28;;;;;;;11.43;1.77;;;;;;;8.23;86.25;99724.97;5050229;28;20124;-71
2022/11/23 08:52:58;;;;;;;11.90;1.80;;;;;;;8.29;85.50;99727.34;5051095;28;20531;-71
2022/11/23 08:55:27;;;;;;;12.63;1.92;;;;;;;8.34;85.48;99730.69;5051271;28;20034;-71
2022/11/23 08:57:58;;;;;;;10.77;1.75;;;;;;;8.37;85.20;99725.31;5050464;28;20041;-71
2022/11/23 09:00:27;;;;;;;9.30;1.70;;;;;;;8.39;85.33;99731.34;5051636;28;20041;-72
2022/11/23 09:02:59;;;;;;;14.48;1.98;;;;;;;8.44;85.46;99732.94;5050500;28;20049;-72
2022/11/23 09:05:29;;;;;;;15.63;3.13;;;;;;;8.46;84.85;99729.31;5052055;28;20048;-72
2022/11/23 09:08:00;;;;;;;11.82;2.00;;;;;;;8.49;84.51;99734.50;5053462;28;20048;-72
2022/11/23 09:10:27;;;;;;;9.32;1.60;;;;;;;8.53;84.52;99735.22;5047290;28;20141;-72
2022/11/23 09:12:54;;;;;;;7.20;1.60;;;;;;;8.58;84.05;99735.06;5053991;28;20520;-72
2022/11/23 09:15:21;;;;;;;7.15;1.60;;;;;;;8.61;83.93;99729.69;5053872;28;20503;-72
2022/11/23 09:17:49;;;;;;;14.02;1.90;;;;;;;8.63;84.17;99727.84;5053145;28;20527;-72
2022/11/23 09:20:16;;;;;;;11.85;1.88;;;;;;;8.69;83.42;99730.22;5053783;28;20046;-72
2022/11/23 09:22:53;;;;;;;9.38;1.80;;;;;;;8.72;83.14;99734.50;5053476;28;20041;-72
2022/11/23 09:25:21;;;;;;;13.07;2.08;;;;;;;8.74;83.62;99727.41;5053882;28;20044;-72
2022/11/23 09:27:56;;;;;;;10.90;1.88;;;;;;;8.80;83.20;99721.94;5052869;28;20407;-72
2022/11/23 09:30:23;;;;;;;;;;;;;;;8.82;83.18;99718.31;5043451;28;20041;-72
2022/11/23 09:32:50;;;;;;;8.63;1.65;;;;;;;8.85;82.82;99725.19;5053830;28;19928;-72
2022/11/23 09:35:17;;;;;;;11.77;2.05;;;;;;;8.89;82.29;99718.91;5053864;28;20042;-72
2022/11/23 09:37:44;;;;;;;7.88;1.88;;;;;;;8.92;81.05;99715.31;5034861;28;20045;-72
2022/11/23 09:40:18;;;;;;;10.98;2.10;;;;;;;8.95;80.55;99723.06;5053168;28;20045;-72
2022/11/23 09:43:16;;;;;;;8.85;1.80;;;;;;;8.98;79.71;99728.19;5053612;28;20128;-72
2022/11/23 09:45:51;;;;;;;8.45;1.80;;;;;;;8.98;79.48;99726.41;5053648;28;20045;-72
2022/11/23 09:49:08;;;;;;;10.77;2.20;;;;;;;9.02;79.62;99732.41;5053411;28;20045;-72
2022/11/23 09:51:40;;;;;;;10.90;1.90;;;;;;;9.02;79.45;99717.47;5051798;28;20054;-72
2022/11/23 09:54:35;;;;;;;15.60;2.20;;;;;;;9.06;79.38;99722.59;5045866;28;20045;-72
2022/11/23 09:57:04;;;;;;;;;;;;;;;9.07;79.71;99722.53;5051116;28;20132;-72
2022/11/23 09:59:57;;;;;;;11.43;1.63;;;;;;;9.12;78.80;99725.84;5053032;28;19929;-72
2022/11/23 10:02:30;;;;;;;10.95;1.83;;;;;;;9.15;78.75;99715.19;5053644;28;20104;-72
2022/11/23 10:05:00;;;;;;;10.88;1.77;;;;;;;9.16;77.76;99709.00;5053023;28;20072;-72
2022/11/23 10:07:55;;;;;;;9.32;1.60;;;;;;;9.21;77.97;99707.97;5052709;28;20093;-72
2022/11/23 10:10:40;;;;;;;11.35;1.83;;;;;;;9.25;78.04;99699.88;5053105;28;20052;-72
2022/11/23 10:13:29;;;;;;;10.75;2.47;;;;;;;9.30;77.14;99700.53;5053111;28;20046;-72
2022/11/23 10:16:27;;;;;;;11.05;2.03;;;;;;;9.32;76.40;99695.19;5052948;28;20041;-72
2022/11/23 10:19:30;;;;;;;8.38;1.42;;;;;;;9.32;76.08;99685.53;5050707;28;20038;-72
2022/11/23 10:22:18;;;;;;;8.88;1.58;;;;;;;9.33;76.01;99686.41;5052811;28;20041;-72
2022/11/23 10:24:51;;;;;;;10.05;1.70;;;;;;;9.31;76.54;99672.44;5052520;28;20698;-72
2022/11/23 10:27:22;;;;;;;11.98;2.20;;;;;;;9.36;76.71;99673.09;5054706;28;20477;-73
2022/11/23 10:29:55;;;;;;;14.98;2.15;;;;;;;9.40;76.30;99663.31;5052408;28;20049;-72
2022/11/23 10:32:49;;;;;;;15.23;3.20;;;;;;;9.44;76.37;99670.13;5052844;28;20132;-72
2022/11/23 10:35:29;;;;;;;9.80;2.10;;;;;;;9.45;76.25;99653.44;5052784;28;20037;-70
2022/11/23 10:38:12;;;;;;;12.82;1.83;;;;;;;9.49;76.20;99655.00;5052238;28;20049;-72
2022/11/23 10:41:07;;;;;;;18.42;1.88;;;;;;;9.50;75.81;99651.47;5053253;28;20041;-72
2022/11/23 10:43:54;;;;;;;9.88;1.45;;;;;;;9.57;76.44;99658.16;5032910;28;20046;-72
2022/11/23 10:46:33;;;;;;;8.52;1.50;;;;;;;9.65;76.33;99652.53;5032892;28;20046;-72
2022/11/23 10:49:23;;;;;;;9.75;1.75;;;;;;;9.70;76.21;99641.81;5032518;28;20551;-72
2022/11/23 10:51:57;;;;;;;8.82;1.60;;;;;;;9.75;76.65;99645.06;5032153;28;20050;-72
2022/11/23 10:54:34;;;;;;;;;;;;;;;9.79;75.06;99630.84;5032949;28;20038;-71
2022/11/23 10:57:38;;;;;;;11.77;2.35;;;;;;;9.84;74.75;99636.75;5048324;28;20314;-72
2022/11/23 11:00:14;;;;;;;6.20;1.70;;;;;;;9.90;74.28;99631.22;5043029;28;20046;-72
2022/11/23 11:02:53;;;;;;;13.38;2.28;;;;;;;9.94;74.51;99626.66;5032811;28;20045;-72
2022/11/23 11:05:28;;;;;;;6.60;1.55;;;;;;;9.99;74.20;99623.78;5046865;28;20558;-72
2022/11/23 11:08:19;;;;;;;12.38;2.08;;;;;;;10.04;73.77;99625.28;5052270;28;20073;-72
2022/11/23 11:11:06;;;;;;;10.95;2.30;;;;;;;10.07;73.91;99614.59;5052788;28;20045;-72
2022/11/23 11:13:47;;;;;;;13.02;1.80;;;;;;;10.12;73.37;99614.41;5032496;28;20034;-72
2022/11/23 11:16:30;;;;;;;8.23;1.60;;;;;;;10.18;72.17;99619.34;5032417;28;20494;-72
2022/11/23 11:18:59;;;;;;;10.80;1.67;;;;;;;10.21;72.57;99616.59;5032483;28;20383;-72
2022/11/23 11:21:39;;;;;;;8.88;1.30;;;;;;;10.26;72.23;99614.56;5032161;28;20050;-72
2022/11/23 11:24:19;;;;;;;7.38;1.23;;;;;;;10.32;71.28;99616.06;5031459;28;20038;-72
2022/11/23 11:26:58;;;;;;;8.07;1.73;;;;;;;10.34;72.00;99624.75;5042751;28;20041;-72
2022/11/23 11:29:33;;;;;;;8.20;1.50;;;;;;;10.38;71.88;99618.41;5051572;28;20577;-72
2022/11/23 11:32:28;;;;;;;13.13;2.60;;;;;;;10.45;72.38;99610.22;5051290;28;20045;-72
2022/11/23 11:35:08;;;;;;;11.65;1.80;;;;;;;10.51;72.21;99610.78;5051391;28;20046;-72
2022/11/23 11:37:41;;;;;;;9.35;1.30;;;;;;;10.62;71.42;99617.28;5052095;28;20038;-72
2022/11/23 11:40:16;;;;;;;11.40;1.58;;;;;;;10.65;70.68;99611.84;5051758;28;20037;-72
2022/11/23 11:42:53;;;;;;;9.70;1.63;;;;;;;10.65;71.11;99610.06;5051288;28;20061;-72
2022/11/23 11:45:32;;;;;;;9.25;1.55;;;;;;;10.60;69.65;99609.44;5050983;28;20049;-73
2022/11/23 11:48:12;;;;;;;7.85;1.27;;;;;;;10.53;69.85;99608.06;5050615;28;20044;-72
2022/11/23 11:51:08;;;;;;;7.22;1.33;;;;;;;10.57;70.51;99615.72;5050060;28;20056;-72
2022/11/23 11:54:08;;;;;;;8.30;1.73;;;;;;;10.62;70.75;99606.75;5040204;28;20057;-72
2022/11/23 11:56:40;;;;;;;10.57;1.80;;;;;;;10.72;70.57;99602.72;5018138;28;20145;-72
2022/11/23 11:59:27;;;;;;;18.80;1.90;;;;;;;10.76;70.41;99598.97;5051346;28;20768;-73
2022/11/23 12:02:13;;;;;;;14.10;1.70;;;;;;;10.85;70.37;99584.50;5052896;28;20041;-73
2022/11/23 12:05:00;;;;;;;16.90;6.18;;;;;;;10.83;70.17;99589.84;5050865;28;20041;-72